createdAt,value
2019-02-05T00:01:41.276Z,87.87
2019-02-05T00:06:44.056Z,87.85
2019-02-05T00:11:46.896Z,87.72
2019-02-05T00:16:49.576Z,88.01
2019-02-05T00:21:52.368Z,88.04
2019-02-05T00:26:55.177Z,87.89
2019-02-05T00:31:57.996Z,87.88
2019-02-05T00:37:00.797Z,88.24
2019-02-05T00:42:03.776Z,88.45
2019-02-05T00:47:06.619Z,88.54
2019-02-05T00:52:09.383Z,88.50
2019-02-05T00:57:12.003Z,88.59
2019-02-05T01:02:14.957Z,88.59
2019-02-05T01:07:17.779Z,88.65
2019-02-05T01:12:21.579Z,88.66
2019-02-05T01:17:24.288Z,88.16
2019-02-05T01:22:27.073Z,88.22
2019-02-05T01:27:29.614Z,88.51
2019-02-05T01:32:32.199Z,88.50
2019-02-05T01:37:34.714Z,88.57
2019-02-05T01:42:37.408Z,88.59
2019-02-05T01:47:40.285Z,88.54
2019-02-05T01:52:43.035Z,88.75
2019-02-05T01:57:46.117Z,88.61
2019-02-05T02:02:49.228Z,88.73
2019-02-05T02:07:52.094Z,88.61
2019-02-05T02:12:55.363Z,88.81
2019-02-05T02:17:58.178Z,88.73
2019-02-05T02:23:01.258Z,89.00
2019-02-05T02:28:04.400Z,89.14
2019-02-05T02:33:07.469Z,89.25
2019-02-05T02:38:10.655Z,89.67
2019-02-05T02:43:13.296Z,89.76
2019-02-05T02:48:16.024Z,89.81
2019-02-05T02:53:18.711Z,89.86
2019-02-05T02:58:21.541Z,89.89
2019-02-05T03:03:24.685Z,90.08
2019-02-05T03:08:27.476Z,90.31
2019-02-05T03:13:30.473Z,90.32
2019-02-05T03:18:33.184Z,90.45
2019-02-05T03:23:35.977Z,90.43
2019-02-05T03:28:38.689Z,90.37
2019-02-05T03:33:41.342Z,90.38
2019-02-05T03:38:44.004Z,90.45
2019-02-05T03:43:46.755Z,90.52
2019-02-05T03:48:50.412Z,90.48
2019-02-05T03:54:02.440Z,90.54
2019-02-05T03:59:17.403Z,90.59
2019-02-05T04:04:38.188Z,90.51
2019-02-05T04:09:58.232Z,90.51
2019-02-05T04:15:16.328Z,90.62
2019-02-05T04:20:35.285Z,90.73
2019-02-05T04:25:50.797Z,90.85
2019-02-05T04:31:08.317Z,90.92
2019-02-05T04:36:29.253Z,90.91
2019-02-05T04:41:50.260Z,90.94
2019-02-05T04:47:07.433Z,90.96
2019-02-05T04:52:22.272Z,91.17
2019-02-05T04:57:40.335Z,91.36
2019-02-05T05:02:58.163Z,91.48
2019-02-05T05:08:14.368Z,91.58
2019-02-05T05:13:17.086Z,91.80
2019-02-05T05:18:19.811Z,91.74
2019-02-05T05:23:22.924Z,91.79
2019-02-05T05:28:25.783Z,91.82
2019-02-05T05:33:28.836Z,91.94
2019-02-05T05:38:31.701Z,91.93
2019-02-05T05:43:34.457Z,91.97
2019-02-05T05:48:37.293Z,92.12
2019-02-05T05:53:40.033Z,92.12
2019-02-05T05:58:42.751Z,92.20
2019-02-05T06:03:45.524Z,92.30
2019-02-05T06:08:48.176Z,92.36
2019-02-05T06:13:51.222Z,92.54
2019-02-05T06:18:54.114Z,92.61
2019-02-05T06:23:57.036Z,92.64
2019-02-05T06:28:59.673Z,92.73
2019-02-05T06:34:02.807Z,92.72
2019-02-05T06:39:08.599Z,92.84
2019-02-05T06:44:11.503Z,92.89
2019-02-05T06:49:14.328Z,92.91
2019-02-05T06:54:17.578Z,92.98
2019-02-05T06:59:20.239Z,93.09
2019-02-05T07:04:22.913Z,93.16
2019-02-05T07:09:25.679Z,93.16
2019-02-05T07:14:28.555Z,93.24
2019-02-05T07:19:31.687Z,93.27
2019-02-05T07:24:34.722Z,93.29
2019-02-05T07:29:37.613Z,93.32
2019-02-05T07:34:40.610Z,93.26
2019-02-05T07:39:43.408Z,93.27
2019-02-05T07:44:46.353Z,93.31
2019-02-05T07:49:49.403Z,93.32
2019-02-05T07:54:52.122Z,93.27
2019-02-05T07:59:54.776Z,93.33
2019-02-05T08:05:00.721Z,93.31
2019-02-05T08:10:05.081Z,93.30
2019-02-05T08:15:12.640Z,93.38
2019-02-05T08:20:15.942Z,93.29
2019-02-05T08:25:18.697Z,93.31
2019-02-05T08:30:24.473Z,93.27
2019-02-05T08:35:27.233Z,93.27
2019-02-05T08:40:30.094Z,93.26
2019-02-05T08:45:33.523Z,93.24
2019-02-05T08:50:36.595Z,93.28
2019-02-05T08:55:39.257Z,93.24
2019-02-05T09:00:42.804Z,93.29
2019-02-05T09:05:45.506Z,93.30
2019-02-05T09:15:58.216Z,93.26
2019-02-05T09:21:01.782Z,93.29
2019-02-05T09:26:04.541Z,93.28
2019-02-05T09:31:07.316Z,93.28
2019-02-05T09:36:10.150Z,93.34
2019-02-05T09:41:13.393Z,93.33
2019-02-05T09:46:16.087Z,93.41
2019-02-05T09:51:18.911Z,93.45
2019-02-05T09:56:21.719Z,93.47
2019-02-05T10:01:24.473Z,93.54
2019-02-05T10:06:27.272Z,93.58
2019-02-05T10:11:30.332Z,93.51
2019-02-05T10:16:33.194Z,93.51
2019-02-05T10:21:36.172Z,93.49
2019-02-05T10:26:38.915Z,93.53
2019-02-05T10:31:41.852Z,93.55
2019-02-05T10:36:45.014Z,93.50
2019-02-05T10:41:47.814Z,93.52
2019-02-05T10:46:52.934Z,93.61
2019-02-05T10:51:55.894Z,93.65
2019-02-05T10:56:59.015Z,93.67
2019-02-05T11:02:01.934Z,93.68
2019-02-05T11:07:05.432Z,93.58
2019-02-05T11:12:10.904Z,93.67
2019-02-05T11:17:14.017Z,93.69
2019-02-05T11:22:16.867Z,93.69
2019-02-05T11:27:19.530Z,93.66
2019-02-05T11:32:22.512Z,93.78
2019-02-05T11:37:25.427Z,93.69
2019-02-05T11:42:28.230Z,93.75
2019-02-05T11:47:31.059Z,93.88
2019-02-05T11:52:33.817Z,93.76
2019-02-05T11:57:36.624Z,93.72
2019-02-05T12:02:39.497Z,93.60
2019-02-05T12:07:42.303Z,93.74
2019-02-05T12:12:45.210Z,93.83
2019-02-05T12:17:47.912Z,93.82
2019-02-05T12:22:51.713Z,93.87
2019-02-05T12:27:54.740Z,93.80
2019-02-05T12:32:58.088Z,93.81
2019-02-05T12:38:01.177Z,93.72
2019-02-05T12:43:04.943Z,93.78
2019-02-05T12:48:08.074Z,93.76
2019-02-05T12:53:10.992Z,93.80
2019-02-05T12:58:13.732Z,93.85
2019-02-05T13:03:16.990Z,93.79
2019-02-05T13:08:20.284Z,93.82
2019-02-05T13:13:23.183Z,93.93
2019-02-05T13:18:26.137Z,93.96
2019-02-05T13:23:29.242Z,93.93
2019-02-05T13:28:32.029Z,93.94
2019-02-05T13:33:35.453Z,93.99
2019-02-05T13:38:38.184Z,94.01
2019-02-05T13:43:40.938Z,93.98
2019-02-05T13:48:43.739Z,94.03
2019-02-05T13:53:46.442Z,94.03
2019-02-05T13:58:49.838Z,94.08
2019-02-05T14:03:53.370Z,94.06
2019-02-05T14:08:56.557Z,94.12
2019-02-05T14:13:59.265Z,94.13
2019-02-05T14:19:01.868Z,94.17
2019-02-05T14:24:05.510Z,94.12
2019-02-05T14:29:08.385Z,94.12
2019-02-05T14:34:11.077Z,94.11
2019-02-05T14:39:13.724Z,94.19
2019-02-05T14:44:16.727Z,94.18
2019-02-05T14:49:19.687Z,94.09
2019-02-05T14:54:22.266Z,94.20
2019-02-05T14:59:24.995Z,94.13
2019-02-05T15:04:27.768Z,94.20
2019-02-05T15:09:30.563Z,94.19
2019-02-05T15:14:33.162Z,94.23
2019-02-05T15:19:35.931Z,94.16
2019-02-05T15:24:41.014Z,94.19
2019-02-05T15:29:44.057Z,94.20
2019-02-05T15:34:46.799Z,94.14
2019-02-05T15:39:49.401Z,94.18
2019-02-05T15:44:52.066Z,94.18
2019-02-05T15:50:05.614Z,94.23
2019-02-05T15:54:59.295Z,94.22
2019-02-05T16:00:02.350Z,94.27
2019-02-05T16:05:06.749Z,94.28
2019-02-05T16:10:12.561Z,94.28
2019-02-05T16:15:15.536Z,94.32
2019-02-05T16:20:18.638Z,94.34
2019-02-05T16:25:21.458Z,94.36
2019-02-05T16:30:24.398Z,94.31
2019-02-05T16:35:27.295Z,94.35
2019-02-05T16:40:30.594Z,94.34
2019-02-05T16:45:33.558Z,94.36
2019-02-05T16:50:39.105Z,94.38
2019-02-05T16:55:42.198Z,94.45
2019-02-05T17:00:44.838Z,94.47
2019-02-05T17:05:47.737Z,94.47
2019-02-05T17:10:50.568Z,94.57
2019-02-05T17:15:53.477Z,94.52
2019-02-05T17:20:56.275Z,94.55
2019-02-05T17:25:59.056Z,94.60
2019-02-05T17:31:01.836Z,94.72
2019-02-05T17:36:05.081Z,94.72
2019-02-05T17:41:08.016Z,94.77
2019-02-05T17:46:10.939Z,94.73
2019-02-05T17:51:13.708Z,94.70
2019-02-05T17:56:16.636Z,94.76
2019-02-05T18:01:20.496Z,94.80
2019-02-05T18:06:23.465Z,94.81
2019-02-05T18:11:26.318Z,94.83
2019-02-05T18:16:29.164Z,94.83
2019-02-05T18:21:32.176Z,94.83
2019-02-05T18:26:35.798Z,94.85
2019-02-05T18:31:38.635Z,94.89
2019-02-05T18:36:41.518Z,94.91
2019-02-05T18:41:44.179Z,94.90
2019-02-05T18:46:46.876Z,94.93
2019-02-05T18:51:49.786Z,94.88
2019-02-05T18:56:52.516Z,94.89
2019-02-05T19:01:55.162Z,94.92
2019-02-05T19:06:57.958Z,94.99
2019-02-05T19:12:04.398Z,95.06
2019-02-05T19:17:05.676Z,95.12
2019-02-05T19:22:08.456Z,95.17
2019-02-05T19:27:11.255Z,95.18
2019-02-05T19:32:16.345Z,95.16
2019-02-05T19:37:19.301Z,95.12
2019-02-05T19:42:22.055Z,95.19
2019-02-05T19:47:29.510Z,94.99
2019-02-05T19:52:32.477Z,94.88
2019-02-05T19:57:35.395Z,94.75
2019-02-05T20:02:38.484Z,94.56
2019-02-05T20:07:41.299Z,94.25
2019-02-05T20:12:44.715Z,94.26
2019-02-05T20:17:47.576Z,94.19
2019-02-05T20:22:50.340Z,94.29
2019-02-05T20:27:53.137Z,94.14
2019-02-05T20:32:55.957Z,94.13
2019-02-05T20:37:58.657Z,94.08
2019-02-05T20:43:01.639Z,94.01
2019-02-05T20:48:05.342Z,93.89
2019-02-05T20:53:14.064Z,93.85
2019-02-05T20:58:14.482Z,93.74
2019-02-05T21:03:17.475Z,93.67
2019-02-05T21:08:20.275Z,93.44
2019-02-05T21:13:23.021Z,93.41
2019-02-05T21:18:25.956Z,93.21
2019-02-05T21:23:28.805Z,92.94
2019-02-05T21:28:31.675Z,93.00
2019-02-05T21:33:34.541Z,92.95
2019-02-05T21:38:37.416Z,92.83
2019-02-05T21:43:40.161Z,92.89
2019-02-05T21:48:43.154Z,93.12
2019-02-05T21:53:46.123Z,92.96
2019-02-05T21:58:49.180Z,93.13
2019-02-05T22:03:52.134Z,93.10
2019-02-05T22:08:55.106Z,92.88
2019-02-05T22:13:57.999Z,92.80
2019-02-05T22:19:00.855Z,93.00
2019-02-05T22:24:04.298Z,93.13
2019-02-05T22:29:07.235Z,93.23
2019-02-05T22:34:10.015Z,93.07
2019-02-05T22:39:12.958Z,93.03
2019-02-05T22:44:16.017Z,93.07
2019-02-05T22:49:19.215Z,93.04
2019-02-05T22:54:22.418Z,92.81
2019-02-05T22:59:25.255Z,92.69
2019-02-05T23:04:50.137Z,92.68
2019-02-05T23:09:56.597Z,92.77
2019-02-05T23:15:06.113Z,92.70
2019-02-05T23:20:12.410Z,92.68
2019-02-05T23:25:15.096Z,92.80
2019-02-05T23:30:23.955Z,92.92
2019-02-05T23:35:26.545Z,92.80
2019-02-05T23:40:28.991Z,92.84
2019-02-05T23:45:31.464Z,92.61
2019-02-05T23:50:33.941Z,92.53
2019-02-05T23:55:36.405Z,92.52
